Time;durP1;ratioP1;P1;durP2;ratioP2;P2;SDS_P1;SDS_P2;PMS_P1;PMS_P2;Temp;Humidity;BMP_temperature;BMP_pressure;BME280_temperature;BME280_humidity;BME280_pressure;Samples;Min_cycle;Max_cycle;Signal;HPM_P1;HPM_P2
2024/03/27 00:01:24;;;;;;;28.17;25.70;;;8.40;99.90;;;;;;4975079;28;20050;-70
2024/03/27 00:03:50;;;;;;;28.73;26.13;;;8.30;99.90;;;;;;4954049;28;20047;-68
2024/03/27 00:06:16;;;;;;;28.42;25.85;;;8.30;99.90;;;;;;4951494;28;20035;-68
2024/03/27 00:08:42;;;;;;;26.95;24.65;;;8.30;99.90;;;;;;4936339;28;20196;-68
2024/03/27 00:11:09;;;;;;;28.25;25.67;;;8.30;99.90;;;;;;4928109;28;20120;-69
2024/03/27 00:13:35;;;;;;;27.70;25.08;;;8.20;99.90;;;;;;4949947;28;20046;-69
2024/03/27 00:16:01;;;;;;;27.90;25.58;;;8.20;99.90;;;;;;4959556;28;20133;-69
2024/03/27 00:18:27;;;;;;;28.55;25.95;;;8.10;99.90;;;;;;4953757;28;20054;-68
2024/03/27 00:20:53;;;;;;;28.58;26.05;;;8.10;99.90;;;;;;4974882;28;20045;-70
2024/03/27 00:23:19;;;;;;;28.13;25.63;;;8.00;99.90;;;;;;4959042;28;20925;-69
2024/03/27 00:25:45;;;;;;;28.42;25.95;;;7.90;99.90;;;;;;4956952;28;20042;-69
2024/03/27 00:28:11;;;;;;;28.27;25.77;;;7.90;99.90;;;;;;4958517;28;20047;-70
2024/03/27 00:30:38;;;;;;;29.17;26.35;;;7.80;99.90;;;;;;4936170;28;20463;-69
2024/03/27 00:33:04;;;;;;;28.23;25.50;;;7.80;99.90;;;;;;4959099;28;20070;-68
2024/03/27 00:35:30;;;;;;;27.92;25.63;;;7.80;99.90;;;;;;4951805;28;20043;-69
2024/03/27 00:37:56;;;;;;;27.52;25.23;;;7.80;99.90;;;;;;4970682;28;20058;-69
2024/03/27 00:40:23;;;;;;;27.60;25.17;;;7.80;99.90;;;;;;4956161;28;20582;-69
2024/03/27 00:42:49;;;;;;;27.27;24.98;;;7.80;99.90;;;;;;4958743;28;20050;-70
2024/03/27 00:45:16;;;;;;;28.88;26.48;;;7.80;99.90;;;;;;4957265;28;20039;-69
2024/03/27 00:47:42;;;;;;;27.98;25.55;;;7.90;99.90;;;;;;4952228;28;20057;-69
2024/03/27 00:50:08;;;;;;;27.85;25.65;;;7.90;99.90;;;;;;4957193;28;20046;-68
2024/03/27 00:52:34;;;;;;;28.08;25.65;;;7.90;99.90;;;;;;4967550;28;20053;-69
2024/03/27 00:55:01;;;;;;;28.10;25.63;;;7.90;99.90;;;;;;4953420;28;20050;-69
2024/03/27 00:57:27;;;;;;;28.40;25.70;;;7.80;99.90;;;;;;4971050;28;20042;-69
2024/03/27 00:59:55;;;;;;;27.77;25.25;;;7.80;99.90;;;;;;4975686;28;20515;-68
2024/03/27 01:02:21;;;;;;;27.58;25.13;;;7.80;99.90;;;;;;4952595;28;20546;-68
2024/03/27 01:04:50;;;;;;;27.60;25.17;;;7.70;99.90;;;;;;4986673;28;20046;-69
2024/03/27 01:07:17;;;;;;;27.60;25.20;;;7.80;99.90;;;;;;4961471;28;20041;-69
2024/03/27 01:09:43;;;;;;;27.30;24.90;;;8.00;99.90;;;;;;4960528;28;20050;-69
2024/03/27 01:12:09;;;;;;;27.90;25.40;;;8.00;99.90;;;;;;4977128;28;20047;-70
2024/03/27 01:14:35;;;;;;;27.17;24.80;;;8.10;99.90;;;;;;4955158;28;20050;-70
2024/03/27 01:17:02;;;;;;;27.65;25.10;;;8.00;99.90;;;;;;4967545;28;20034;-68
2024/03/27 01:19:28;;;;;;;28.42;25.85;;;8.00;99.90;;;;;;4959872;28;20042;-68
2024/03/27 01:21:55;;;;;;;27.58;25.23;;;7.80;99.90;;;;;;4950654;28;20062;-68
2024/03/27 01:24:21;;;;;;;28.40;25.83;;;7.80;99.90;;;;;;4949493;28;20053;-68
2024/03/27 01:26:47;;;;;;;28.10;25.60;;;7.80;99.90;;;;;;4964004;28;20064;-70
2024/03/27 01:29:14;;;;;;;27.70;25.33;;;7.70;99.90;;;;;;4974641;28;20089;-70
2024/03/27 01:31:40;;;;;;;29.00;26.38;;;7.60;99.90;;;;;;4955316;28;21180;-69
2024/03/27 01:34:06;;;;;;;28.48;25.98;;;7.70;99.90;;;;;;4952190;28;20195;-70
2024/03/27 01:36:32;;;;;;;28.95;26.35;;;7.70;99.90;;;;;;4952519;28;20034;-70
2024/03/27 01:38:58;;;;;;;30.95;28.08;;;7.70;99.90;;;;;;4954580;28;20099;-70
2024/03/27 01:41:24;;;;;;;31.05;28.23;;;7.60;99.90;;;;;;4958561;28;20417;-70
2024/03/27 01:43:50;;;;;;;28.73;26.30;;;7.60;99.90;;;;;;4939438;28;20711;-69
2024/03/27 01:46:20;;;;;;;29.52;26.83;;;7.60;99.90;;;;;;4957620;28;20038;-69
2024/03/27 01:48:46;;;;;;;29.48;26.60;;;7.70;99.90;;;;;;4950891;28;20620;-68
2024/03/27 01:51:12;;;;;;;28.33;25.98;;;7.70;99.90;;;;;;4956676;28;20042;-70
2024/03/27 01:53:39;;;;;;;28.95;26.35;;;7.70;99.90;;;;;;4961315;28;20046;-68
2024/03/27 01:56:06;;;;;;;28.10;25.75;;;7.80;99.90;;;;;;4954153;28;20046;-68
2024/03/27 01:58:32;;;;;;;28.63;25.88;;;7.90;99.90;;;;;;4959127;28;20042;-71
2024/03/27 02:00:59;;;;;;;27.75;25.33;;;8.00;99.90;;;;;;4955114;28;20484;-69
2024/03/27 02:03:29;;;;;;;28.73;26.42;;;8.10;99.90;;;;;;4955052;28;20803;-70
2024/03/27 02:05:57;;;;;;;27.60;25.23;;;8.10;99.90;;;;;;4950317;28;20034;-70
2024/03/27 02:08:23;;;;;;;28.50;25.75;;;8.20;99.90;;;;;;4954915;28;20038;-69
2024/03/27 02:10:49;;;;;;;27.75;25.17;;;8.20;99.90;;;;;;4957330;28;20057;-68
2024/03/27 02:13:15;;;;;;;27.67;25.05;;;8.20;99.90;;;;;;4969839;28;20050;-68
2024/03/27 02:15:42;;;;;;;28.08;25.58;;;8.20;99.90;;;;;;4968950;28;20062;-69
2024/03/27 02:18:08;;;;;;;28.05;25.63;;;8.20;99.90;;;;;;4949475;28;20042;-69
2024/03/27 02:20:34;;;;;;;28.52;25.92;;;8.20;99.90;;;;;;4952242;28;20431;-67
2024/03/27 02:23:12;;;;;;;28.42;25.88;;;8.10;99.90;;;;;;4971270;28;20115;-69
2024/03/27 02:25:46;;;;;;;26.98;24.88;;;8.20;99.90;;;;;;4935743;28;20049;-69
2024/03/27 02:28:13;;;;;;;28.17;25.45;;;8.20;99.90;;;;;;4973323;28;20587;-69
2024/03/27 02:30:46;;;;;;;28.45;25.90;;;8.30;99.90;;;;;;4961255;28;20042;-69
2024/03/27 02:33:12;;;;;;;27.58;25.35;;;8.30;99.90;;;;;;4971395;28;21366;-70
2024/03/27 02:35:38;;;;;;;28.15;25.85;;;8.30;99.90;;;;;;4948164;28;20527;-68
2024/03/27 02:38:04;;;;;;;26.83;24.70;;;8.30;99.90;;;;;;4967974;28;20035;-69
2024/03/27 02:40:31;;;;;;;27.10;24.67;;;8.30;99.90;;;;;;4969151;28;20046;-69
2024/03/27 02:42:56;;;;;;;26.83;24.60;;;8.40;99.90;;;;;;4933560;28;20430;-69
2024/03/27 02:45:23;;;;;;;27.52;25.30;;;8.40;99.90;;;;;;4949544;28;20046;-70
2024/03/27 02:47:49;;;;;;;27.05;24.85;;;8.40;99.90;;;;;;4951606;28;20057;-68
2024/03/27 02:50:15;;;;;;;27.92;25.42;;;8.50;99.90;;;;;;4969389;28;20061;-68
2024/03/27 02:52:41;;;;;;;27.70;25.17;;;8.40;99.90;;;;;;4969381;28;20156;-69
2024/03/27 02:55:08;;;;;;;27.92;25.40;;;8.30;99.90;;;;;;4948807;28;20046;-70
2024/03/27 02:57:33;;;;;;;28.38;25.98;;;8.20;99.90;;;;;;4968208;28;20043;-70
2024/03/27 03:00:01;;;;;;;28.08;25.85;;;8.20;99.90;;;;;;4955468;28;20038;-70
2024/03/27 03:02:27;;;;;;;28.35;25.90;;;8.20;99.90;;;;;;4975635;28;20046;-69
2024/03/27 03:04:53;;;;;;;28.05;25.45;;;8.10;99.90;;;;;;4952836;28;20065;-69
2024/03/27 03:07:19;;;;;;;28.83;26.25;;;7.90;99.90;;;;;;4957914;28;20688;-70
2024/03/27 03:09:46;;;;;;;27.65;25.35;;;7.90;99.90;;;;;;4954296;28;21533;-69
2024/03/27 03:12:12;;;;;;;29.00;26.52;;;7.80;99.90;;;;;;4956660;28;20039;-69
2024/03/27 03:14:38;;;;;;;27.67;25.48;;;7.60;99.90;;;;;;4952188;28;20135;-68
2024/03/27 03:17:04;;;;;;;28.77;26.17;;;7.50;99.90;;;;;;4970489;28;20047;-68
2024/03/27 03:19:30;;;;;;;28.73;26.13;;;7.50;99.90;;;;;;4955424;28;20129;-69
2024/03/27 03:21:57;;;;;;;28.35;26.02;;;7.40;99.90;;;;;;4966095;28;20053;-70
2024/03/27 03:24:23;;;;;;;28.20;25.90;;;7.30;99.90;;;;;;4961927;28;20041;-68
2024/03/27 03:26:49;;;;;;;28.35;26.00;;;7.20;99.90;;;;;;4985974;28;20062;-69
2024/03/27 03:29:15;;;;;;;28.45;26.00;;;7.20;99.90;;;;;;4973280;28;20054;-70
2024/03/27 03:31:42;;;;;;;28.67;26.17;;;7.20;99.90;;;;;;4957448;28;20138;-68
2024/03/27 03:34:08;;;;;;;28.60;25.88;;;7.20;99.90;;;;;;4933874;28;20128;-69
2024/03/27 03:36:34;;;;;;;28.42;26.02;;;7.30;99.90;;;;;;4972076;28;20038;-69
2024/03/27 03:39:00;;;;;;;29.10;26.60;;;7.30;99.90;;;;;;4958152;28;20084;-68
2024/03/27 03:41:26;;;;;;;27.83;25.45;;;7.30;99.90;;;;;;4957754;28;20161;-70
2024/03/27 03:43:53;;;;;;;29.52;26.75;;;7.20;99.90;;;;;;4937221;28;20594;-68
2024/03/27 03:46:19;;;;;;;29.50;26.58;;;7.30;99.90;;;;;;4959306;28;20794;-69
2024/03/27 03:48:45;;;;;;;27.90;25.60;;;7.30;99.90;;;;;;4943563;28;20051;-69
2024/03/27 03:51:11;;;;;;;28.48;26.10;;;7.40;99.90;;;;;;4970761;28;20113;-69
2024/03/27 03:53:37;;;;;;;29.13;26.60;;;7.50;99.90;;;;;;4955618;28;20698;-70
2024/03/27 03:56:29;;;;;;;29.27;26.88;;;7.40;99.90;;;;;;4971409;28;20973;-69
2024/03/27 03:58:55;;;;;;;30.55;27.85;;;7.40;99.90;;;;;;4971231;28;20054;-68
2024/03/27 04:01:21;;;;;;;31.15;28.25;;;7.40;99.90;;;;;;4952248;28;20124;-70
2024/03/27 04:03:47;;;;;;;29.98;27.33;;;7.40;99.90;;;;;;4971157;28;20042;-68
2024/03/27 04:06:14;;;;;;;29.08;26.23;;;7.50;99.90;;;;;;4957411;28;21885;-69
2024/03/27 04:08:40;;;;;;;29.00;26.58;;;7.50;99.90;;;;;;4954702;28;20042;-70
2024/03/27 04:11:07;;;;;;;28.73;26.25;;;7.60;99.90;;;;;;4940647;28;20770;-70
2024/03/27 04:13:33;;;;;;;28.17;25.80;;;7.50;99.90;;;;;;4949460;28;20113;-70
2024/03/27 04:16:01;;;;;;;28.73;26.33;;;7.60;99.90;;;;;;4975515;28;20875;-68
2024/03/27 04:18:27;;;;;;;30.05;27.15;;;7.60;99.90;;;;;;4980120;28;20108;-70
2024/03/27 04:20:54;;;;;;;28.45;26.13;;;7.60;99.90;;;;;;4956368;28;20048;-68
2024/03/27 04:23:20;;;;;;;28.33;25.90;;;7.50;99.90;;;;;;4954930;28;20422;-69
2024/03/27 04:25:47;;;;;;;28.38;26.08;;;7.50;99.90;;;;;;4952086;28;20046;-70
2024/03/27 04:28:14;;;;;;;28.00;25.60;;;7.60;99.90;;;;;;4970279;28;20049;-70
2024/03/27 04:30:41;;;;;;;28.95;26.35;;;7.70;99.90;;;;;;4953241;28;20031;-69
2024/03/27 04:33:09;;;;;;;28.00;25.48;;;7.80;99.90;;;;;;4965739;28;20045;-69
2024/03/27 04:35:37;;;;;;;28.13;25.73;;;7.90;99.90;;;;;;4967360;28;20054;-69
2024/03/27 04:38:03;;;;;;;26.85;24.75;;;8.00;99.90;;;;;;4952807;28;20050;-69
2024/03/27 04:40:30;;;;;;;28.45;25.90;;;7.90;99.90;;;;;;4955509;28;20217;-69
2024/03/27 04:42:56;;;;;;;28.83;26.25;;;7.80;99.90;;;;;;4947241;28;20476;-69
2024/03/27 04:45:22;;;;;;;29.48;26.88;;;7.90;99.90;;;;;;4957054;28;20096;-70
2024/03/27 04:47:48;;;;;;;29.13;26.58;;;7.80;99.90;;;;;;4957477;28;20053;-70
2024/03/27 04:50:14;;;;;;;29.08;26.58;;;7.70;99.90;;;;;;4938213;28;20065;-70
2024/03/27 04:52:41;;;;;;;29.02;26.52;;;7.70;99.90;;;;;;4953047;28;20045;-69
2024/03/27 04:55:07;;;;;;;30.25;27.50;;;7.50;99.90;;;;;;4951523;28;20117;-69
2024/03/27 04:57:33;;;;;;;30.08;27.40;;;7.30;99.90;;;;;;4955336;28;20062;-69
2024/03/27 04:59:59;;;;;;;28.88;26.38;;;7.20;99.90;;;;;;4955676;28;20046;-68
2024/03/27 05:02:25;;;;;;;29.13;26.63;;;7.20;99.90;;;;;;4953702;28;20092;-70
2024/03/27 05:04:51;;;;;;;32.88;27.45;;;7.10;99.90;;;;;;4952475;28;20518;-70
2024/03/27 05:07:18;;;;;;;29.88;27.33;;;6.90;99.90;;;;;;4973213;28;20080;-68
2024/03/27 05:09:44;;;;;;;32.15;29.20;;;6.80;99.90;;;;;;4952209;28;20053;-68
2024/03/27 05:12:11;;;;;;;30.42;27.83;;;6.80;99.90;;;;;;4940806;28;20046;-70
2024/03/27 05:14:37;;;;;;;29.10;26.45;;;6.80;99.90;;;;;;4962586;28;20034;-70
2024/03/27 05:17:04;;;;;;;29.30;26.55;;;6.70;99.90;;;;;;4937731;28;20634;-68
2024/03/27 05:19:30;;;;;;;28.77;26.38;;;6.60;99.90;;;;;;4952368;28;20049;-70
2024/03/27 05:21:56;;;;;;;28.80;26.30;;;6.50;99.90;;;;;;4947752;28;20573;-69
2024/03/27 05:24:22;;;;;;;29.55;26.98;;;6.50;99.90;;;;;;4970564;28;20760;-68
2024/03/27 05:26:50;;;;;;;29.67;27.27;;;6.40;99.90;;;;;;4970812;28;20100;-69
2024/03/27 05:29:16;;;;;;;29.58;26.90;;;6.40;99.90;;;;;;4951984;28;20057;-70
2024/03/27 05:31:49;;;;;;;39.33;36.35;;;6.40;99.90;;;;;;4953053;28;20073;-68
2024/03/27 05:34:16;;;;;;;37.67;34.72;;;6.30;99.90;;;;;;4967737;28;20845;-69
2024/03/27 05:36:42;;;;;;;36.83;34.00;;;6.30;99.90;;;;;;4963463;28;20062;-70
2024/03/27 05:39:09;;;;;;;35.45;32.78;;;6.10;99.90;;;;;;4937457;28;20045;-68
2024/03/27 05:41:36;;;;;;;35.97;33.08;;;6.10;99.90;;;;;;4970130;28;20034;-67
2024/03/27 05:44:02;;;;;;;35.28;32.25;;;6.20;99.90;;;;;;4948691;28;20042;-69
2024/03/27 05:46:28;;;;;;;34.08;31.38;;;6.10;99.90;;;;;;4954921;28;21538;-70
2024/03/27 05:48:57;;;;;;;34.53;31.73;;;6.00;99.90;;;;;;4936438;28;20168;-71
2024/03/27 05:51:24;;;;;;;33.97;31.13;;;6.10;99.90;;;;;;4954648;28;20191;-69
2024/03/27 05:53:50;;;;;;;33.42;30.80;;;6.10;99.90;;;;;;4938388;28;20039;-70
2024/03/27 05:56:17;;;;;;;34.75;31.70;;;6.00;99.90;;;;;;4955468;28;21181;-70
2024/03/27 05:58:43;;;;;;;34.90;32.30;;;6.20;99.90;;;;;;4973328;28;20687;-68
2024/03/27 06:01:09;;;;;;;33.90;31.30;;;6.30;99.90;;;;;;4934380;28;20062;-69
2024/03/27 06:03:36;;;;;;;33.97;31.25;;;6.30;99.90;;;;;;4951518;28;20038;-68
2024/03/27 06:06:02;;;;;;;34.63;31.73;;;6.40;99.90;;;;;;4939163;28;20038;-69
2024/03/27 06:08:27;;;;;;;34.33;31.17;;;6.30;99.90;;;;;;4939060;28;20082;-70
2024/03/27 06:10:54;;;;;;;33.95;31.17;;;6.40;99.90;;;;;;4968038;28;20039;-70
2024/03/27 06:13:20;;;;;;;33.63;31.02;;;6.30;99.90;;;;;;4970959;28;22397;-69
2024/03/27 06:15:46;;;;;;;32.63;30.15;;;6.50;99.90;;;;;;4952668;28;20038;-70
2024/03/27 06:18:12;;;;;;;35.65;32.75;;;6.50;99.90;;;;;;4950409;28;20039;-68
2024/03/27 06:20:38;;;;;;;35.47;32.88;;;6.60;99.90;;;;;;4936076;28;20046;-69
2024/03/27 06:23:04;;;;;;;34.65;31.90;;;6.70;99.90;;;;;;4955455;28;20439;-69
2024/03/27 06:25:30;;;;;;;34.90;32.10;;;6.80;99.90;;;;;;4952242;28;20053;-70
2024/03/27 06:27:56;;;;;;;35.53;32.72;;;6.90;99.90;;;;;;4954045;28;20062;-69
2024/03/27 06:30:22;;;;;;;41.10;37.13;;;7.10;99.90;;;;;;4969438;28;20489;-69
2024/03/27 06:32:49;;;;;;;37.17;33.97;;;7.20;99.90;;;;;;4965225;28;20058;-70
2024/03/27 06:35:16;;;;;;;38.13;34.78;;;7.20;99.90;;;;;;4955322;28;20072;-70
2024/03/27 06:37:42;;;;;;;36.15;33.15;;;7.20;99.90;;;;;;4979967;28;20042;-69
2024/03/27 06:40:11;;;;;;;36.83;33.65;;;7.20;99.90;;;;;;4944620;28;20042;-69
2024/03/27 06:42:38;;;;;;;38.90;35.63;;;7.40;99.90;;;;;;4960758;28;20051;-69
2024/03/27 06:45:05;;;;;;;45.92;41.17;;;7.50;99.90;;;;;;4962294;28;20046;-69
2024/03/27 06:47:32;;;;;;;40.35;36.45;;;7.70;99.90;;;;;;4961318;28;20061;-69
2024/03/27 06:49:58;;;;;;;34.70;32.00;;;7.80;99.90;;;;;;4957761;28;20221;-69
2024/03/27 06:52:25;;;;;;;32.20;29.77;;;7.90;99.90;;;;;;4955968;28;20343;-70
2024/03/27 06:54:51;;;;;;;32.85;29.83;;;8.10;99.90;;;;;;4961870;28;20050;-70
2024/03/27 06:57:21;;;;;;;32.95;30.45;;;8.30;99.90;;;;;;4975974;28;20134;-70
2024/03/27 06:59:47;;;;;;;31.08;28.60;;;8.50;99.90;;;;;;4947917;28;20427;-70
2024/03/27 07:02:13;;;;;;;33.50;30.90;;;8.70;99.90;;;;;;4957067;28;20038;-70
2024/03/27 07:04:39;;;;;;;33.40;30.50;;;8.90;99.90;;;;;;4955632;28;20042;-68
2024/03/27 07:07:05;;;;;;;33.17;30.08;;;9.00;99.90;;;;;;4965588;28;20054;-69
2024/03/27 07:09:32;;;;;;;32.83;30.08;;;9.00;99.90;;;;;;4983327;28;20131;-69
2024/03/27 07:11:58;;;;;;;31.88;29.38;;;9.10;99.90;;;;;;4970800;28;20382;-69
2024/03/27 07:14:24;;;;;;;32.75;30.13;;;9.20;99.90;;;;;;4961392;28;20049;-71
2024/03/27 07:16:50;;;;;;;31.63;29.13;;;9.20;99.90;;;;;;4964110;28;20105;-70
2024/03/27 07:19:16;;;;;;;32.95;30.15;;;9.30;99.90;;;;;;4966563;28;20046;-70
2024/03/27 07:21:42;;;;;;;33.45;30.75;;;9.40;99.90;;;;;;4958833;28;20655;-70
2024/03/27 07:24:08;;;;;;;34.65;31.73;;;9.40;99.90;;;;;;4977845;28;20039;-68
2024/03/27 07:26:39;;;;;;;35.00;32.17;;;9.60;99.90;;;;;;4976412;28;20107;-68
2024/03/27 07:29:06;;;;;;;33.28;30.55;;;9.70;99.90;;;;;;4964992;28;20073;-70
2024/03/27 07:31:32;;;;;;;35.92;33.45;;;9.90;99.90;;;;;;4957690;28;20121;-69
2024/03/27 07:33:58;;;;;;;36.22;33.45;;;10.20;99.90;;;;;;4956488;28;20484;-68
2024/03/27 07:36:24;;;;;;;37.38;34.65;;;10.60;99.90;;;;;;4962629;28;20567;-70
2024/03/27 07:38:51;;;;;;;36.35;33.70;;;10.90;99.90;;;;;;4982279;28;20112;-70
2024/03/27 07:41:17;;;;;;;38.03;34.83;;;11.20;99.90;;;;;;4979915;28;20034;-70
2024/03/27 07:43:43;;;;;;;39.25;36.08;;;11.70;99.90;;;;;;4958646;28;20046;-69
2024/03/27 07:46:11;;;;;;;38.42;35.72;;;12.00;99.90;;;;;;4954606;28;20419;-69
2024/03/27 07:48:38;;;;;;;36.92;34.00;;;12.30;99.90;;;;;;4982373;28;20062;-70
2024/03/27 07:51:04;;;;;;;36.45;33.85;;;12.40;99.90;;;;;;4957649;28;20049;-70
2024/03/27 07:53:31;;;;;;;37.65;34.80;;;12.60;99.90;;;;;;4963499;28;20563;-70
2024/03/27 07:55:58;;;;;;;36.55;33.50;;;12.80;99.90;;;;;;4942733;28;20030;-70
2024/03/27 07:58:24;;;;;;;35.92;33.08;;;13.00;99.90;;;;;;4971927;28;20069;-70
2024/03/27 08:00:52;;;;;;;36.88;33.97;;;12.90;99.90;;;;;;4962757;28;20053;-71
2024/03/27 08:03:18;;;;;;;35.53;32.65;;;12.90;99.90;;;;;;4960331;28;20051;-70
2024/03/27 08:05:44;;;;;;;39.13;35.92;;;13.20;99.90;;;;;;4966181;28;20049;-70
2024/03/27 08:08:10;;;;;;;36.33;33.40;;;13.30;99.90;;;;;;4968946;28;20101;-69
2024/03/27 08:10:37;;;;;;;34.90;32.28;;;13.20;99.90;;;;;;4948892;28;20708;-70
2024/03/27 08:13:04;;;;;;;35.67;32.90;;;13.20;99.90;;;;;;4964534;28;20043;-69
2024/03/27 08:15:31;;;;;;;35.10;32.55;;;13.20;99.90;;;;;;4955427;28;20121;-70
2024/03/27 08:17:57;;;;;;;34.25;31.55;;;13.20;99.90;;;;;;4966189;28;20100;-71
2024/03/27 08:20:23;;;;;;;35.72;32.78;;;13.20;99.90;;;;;;4955285;28;20046;-70
2024/03/27 08:22:49;;;;;;;34.60;32.03;;;13.40;99.90;;;;;;4960962;28;20717;-71
2024/03/27 08:25:15;;;;;;;38.90;36.20;;;13.60;99.90;;;;;;4950585;28;20049;-70
2024/03/27 08:27:42;;;;;;;42.70;40.03;;;13.70;99.90;;;;;;4957666;28;20042;-68
2024/03/27 08:30:08;;;;;;;38.47;35.97;;;13.90;99.90;;;;;;4959115;28;20145;-70
2024/03/27 08:32:35;;;;;;;38.45;35.55;;;14.00;99.90;;;;;;4956460;28;20114;-70
2024/03/27 08:35:02;;;;;;;39.05;36.10;;;14.00;99.90;;;;;;4965062;28;20153;-70
2024/03/27 08:37:28;;;;;;;39.38;36.45;;;14.10;99.90;;;;;;4957119;28;20669;-71
2024/03/27 08:39:55;;;;;;;37.60;34.88;;;14.00;99.90;;;;;;4972525;28;20054;-69
2024/03/27 08:42:21;;;;;;;36.92;34.42;;;14.10;99.90;;;;;;4953557;28;20050;-69
2024/03/27 08:44:48;;;;;;;37.38;34.58;;;14.10;99.90;;;;;;4952653;28;20443;-70
2024/03/27 08:47:14;;;;;;;38.97;36.13;;;14.00;99.90;;;;;;4950826;28;20227;-69
2024/03/27 08:49:40;;;;;;;37.30;34.50;;;13.90;99.90;;;;;;4962700;28;20054;-70
2024/03/27 08:52:09;;;;;;;35.58;32.88;;;13.90;99.90;;;;;;4954193;28;20047;-70
2024/03/27 08:54:36;;;;;;;43.58;40.65;;;14.00;99.90;;;;;;4955181;28;20060;-69
2024/03/27 08:57:02;;;;;;;43.58;40.58;;;14.20;99.90;;;;;;4941113;28;20041;-69
2024/03/27 08:59:28;;;;;;;43.33;40.42;;;14.40;99.90;;;;;;4973696;28;20874;-70
2024/03/27 09:01:54;;;;;;;44.78;41.95;;;14.80;99.90;;;;;;4973306;28;20642;-70
2024/03/27 09:04:20;;;;;;;42.13;39.25;;;15.10;99.90;;;;;;4950402;28;20042;-70
2024/03/27 09:06:46;;;;;;;47.35;44.15;;;15.30;99.90;;;;;;4960502;28;20051;-69
2024/03/27 09:09:13;;;;;;;47.90;44.70;;;15.80;99.90;;;;;;4965235;28;20050;-71
2024/03/27 09:11:39;;;;;;;49.22;45.88;;;16.40;99.90;;;;;;4955016;28;20126;-70
2024/03/27 09:14:05;;;;;;;49.63;46.42;;;16.80;99.90;;;;;;4955087;28;20070;-70
2024/03/27 09:16:32;;;;;;;48.03;44.78;;;17.20;99.90;;;;;;4961987;28;20290;-70
2024/03/27 09:18:58;;;;;;;46.38;43.40;;;17.50;99.90;;;;;;4946685;28;20064;-69
2024/03/27 09:21:24;;;;;;;49.03;45.63;;;17.40;99.90;;;;;;4954700;28;20542;-70
2024/03/27 09:23:50;;;;;;;49.17;45.67;;;17.30;99.90;;;;;;4966832;28;20043;-69
2024/03/27 09:26:15;;;;;;;50.38;46.67;;;17.20;99.90;;;;;;4952965;28;20611;-70
2024/03/27 09:28:42;;;;;;;48.00;44.53;;;16.90;99.90;;;;;;4955397;28;20077;-71
2024/03/27 09:31:08;;;;;;;42.95;39.38;;;16.40;99.90;;;;;;4958305;28;20046;-70
2024/03/27 09:33:34;;;;;;;45.00;42.00;;;16.20;99.90;;;;;;4939796;28;20031;-71
2024/03/27 09:36:01;;;;;;;43.30;40.00;;;16.20;99.90;;;;;;4951760;28;20588;-69
2024/03/27 09:38:27;;;;;;;47.28;43.85;;;16.30;99.90;;;;;;4955581;28;20050;-70
2024/03/27 09:40:57;;;;;;;45.95;42.35;;;16.40;99.90;;;;;;4954018;28;20038;-70
2024/03/27 09:43:24;;;;;;;44.70;41.50;;;16.60;99.90;;;;;;4957462;28;20044;-71
2024/03/27 09:45:52;;;;;;;44.72;41.53;;;16.60;99.90;;;;;;4967851;28;20054;-71
2024/03/27 09:48:18;;;;;;;44.88;41.50;;;16.70;99.90;;;;;;4949243;28;20058;-71
2024/03/27 09:50:44;;;;;;;43.30;39.90;;;16.80;99.90;;;;;;4943750;28;20042;-70
2024/03/27 09:53:11;;;;;;;43.78;40.08;;;16.80;99.90;;;;;;4967179;28;20043;-71
2024/03/27 09:55:38;;;;;;;44.72;41.35;;;16.50;99.90;;;;;;4955596;28;20602;-70
2024/03/27 09:58:12;;;;;;;44.42;41.28;;;16.30;99.90;;;;;;4970905;28;20115;-70
2024/03/27 10:00:39;;;;;;;45.03;41.72;;;16.20;99.90;;;;;;4956664;28;20042;-70
2024/03/27 10:03:05;;;;;;;42.58;39.28;;;16.30;99.90;;;;;;4952569;28;20054;-71
2024/03/27 10:05:32;;;;;;;43.72;40.42;;;16.20;99.90;;;;;;4981487;28;20058;-71
2024/03/27 10:07:59;;;;;;;43.30;40.17;;;16.10;99.90;;;;;;4976101;28;20053;-71
2024/03/27 10:10:27;;;;;;;43.78;40.38;;;16.00;99.90;;;;;;4954606;28;20534;-70
2024/03/27 10:12:53;;;;;;;50.25;46.45;;;15.90;99.90;;;;;;4936680;28;20088;-69
2024/03/27 10:15:21;;;;;;;45.20;41.70;;;16.00;99.90;;;;;;4969023;28;20039;-69
2024/03/27 10:17:47;;;;;;;48.58;45.05;;;15.80;99.90;;;;;;4972964;28;20144;-71
2024/03/27 10:20:14;;;;;;;47.67;44.17;;;15.90;99.90;;;;;;4955578;28;20519;-70
2024/03/27 10:22:40;;;;;;;50.97;47.25;;;16.00;99.90;;;;;;4951669;28;20061;-70
2024/03/27 10:25:07;;;;;;;48.45;45.05;;;15.90;99.90;;;;;;4973273;28;20156;-70
2024/03/27 10:27:34;;;;;;;46.10;42.30;;;16.10;99.90;;;;;;4944937;28;20120;-70
2024/03/27 10:30:02;;;;;;;48.15;44.58;;;16.20;99.90;;;;;;4951867;28;20594;-71
2024/03/27 10:32:28;;;;;;;43.90;40.35;;;16.20;99.90;;;;;;4953043;28;20047;-70
2024/03/27 10:34:55;;;;;;;44.70;41.40;;;16.30;99.90;;;;;;4962872;28;20038;-69
2024/03/27 10:37:22;;;;;;;49.85;46.38;;;16.40;99.90;;;;;;4966299;28;20096;-69
2024/03/27 10:39:50;;;;;;;50.50;46.78;;;16.20;99.90;;;;;;4971840;28;20057;-70
2024/03/27 10:42:22;;;;;;;48.72;45.17;;;16.00;99.90;;;;;;4955808;28;20053;-69
2024/03/27 10:44:53;;;;;;;44.03;40.75;;;16.40;99.90;;;;;;4974049;28;20050;-69
2024/03/27 10:47:21;;;;;;;46.85;43.45;;;16.10;99.90;;;;;;4970546;28;20049;-70
2024/03/27 10:49:47;;;;;;;52.08;48.28;;;16.00;99.90;;;;;;4973003;28;20101;-70
2024/03/27 10:52:18;;;;;;;50.58;47.08;;;16.40;99.90;;;;;;4957590;28;20123;-70
2024/03/27 10:54:44;;;;;;;48.00;44.65;;;16.90;99.90;;;;;;4955180;28;20055;-70
2024/03/27 10:57:12;;;;;;;45.70;42.22;;;17.20;99.90;;;;;;4956577;28;20581;-70
2024/03/27 10:59:42;;;;;;;49.33;45.63;;;17.30;99.90;;;;;;4956229;28;20039;-70
2024/03/27 11:02:10;;;;;;;50.35;46.75;;;17.30;99.90;;;;;;4951398;28;20054;-71
2024/03/27 11:04:42;;;;;;;44.80;41.40;;;17.20;99.90;;;;;;4957190;28;20097;-70
2024/03/27 11:07:09;;;;;;;45.33;42.13;;;17.10;99.90;;;;;;4938934;28;20061;-70
2024/03/27 11:09:36;;;;;;;47.30;44.08;;;17.10;99.90;;;;;;4968791;28;20539;-70
2024/03/27 11:12:04;;;;;;;46.08;42.97;;;17.30;99.90;;;;;;4972948;28;20046;-69
2024/03/27 11:14:37;;;;;;;45.38;41.97;;;17.20;99.90;;;;;;4966747;28;20038;-69
2024/03/27 11:17:03;;;;;;;45.00;41.42;;;16.90;99.90;;;;;;4954595;28;20049;-69
2024/03/27 11:19:33;;;;;;;45.97;42.72;;;16.70;99.90;;;;;;4955132;28;20309;-69
2024/03/27 11:22:07;;;;;;;45.50;42.28;;;16.60;99.90;;;;;;4957301;28;20051;-70
2024/03/27 11:24:33;;;;;;;44.95;41.75;;;16.60;99.90;;;;;;4942975;28;20046;-70
2024/03/27 11:27:00;;;;;;;45.85;42.85;;;16.40;99.90;;;;;;4944671;28;20054;-70
